Time;durP1;ratioP1;P1;durP2;ratioP2;P2;SDS_P1;SDS_P2;PMS_P1;PMS_P2;Temp;Humidity;BMP_temperature;BMP_pressure;BME280_temperature;BME280_humidity;BME280_pressure;Samples;Min_cycle;Max_cycle;Signal;HPM_P1;HPM_P2
2022/11/20 00:00:01;;;;;;;9.10;6.00;;;;;;;6.08;80.40;99066.78;344050;28;1413;-72
2022/11/20 00:00:14;;;;;;;8.85;5.75;;;;;;;6.09;80.54;99062.47;344744;28;1055;-72
2022/11/20 00:00:26;;;;;;;8.82;5.88;;;;;;;6.11;79.75;99060.69;344724;28;1056;-72
2022/11/20 00:00:39;;;;;;;8.75;5.72;;;;;;;6.03;79.49;99062.59;345313;28;757;-72
2022/11/20 00:00:51;;;;;;;8.82;5.70;;;;;;;5.93;79.88;99057.63;343837;28;1067;-72
2022/11/20 00:01:14;;;;;;;8.73;6.00;;;;;;;6.00;80.08;99061.78;344034;28;763;-72
2022/11/20 00:01:27;;;;;;;8.52;5.90;;;;;;;6.03;79.97;99068.59;343562;28;1020;-72
2022/11/20 00:01:38;;;;;;;8.48;5.93;;;;;;;6.02;80.10;99066.06;344239;28;1233;-73
2022/11/20 00:01:50;;;;;;;9.52;6.53;;;;;;;6.05;80.02;99060.84;344986;28;1047;-72
2022/11/20 00:02:02;;;;;;;9.25;6.43;;;;;;;6.06;80.09;99067.72;344910;28;1181;-72
2022/11/20 00:02:14;;;;;;;9.15;6.15;;;;;;;6.04;79.72;99074.59;345184;28;1024;-72
2022/11/20 00:02:26;;;;;;;9.23;6.30;;;;;;;6.04;80.11;99064.28;344853;28;1039;-72
2022/11/20 00:02:38;;;;;;;9.10;6.40;;;;;;;6.07;80.33;99069.38;344752;28;1084;-72
2022/11/20 00:02:50;;;;;;;9.10;6.05;;;;;;;6.08;80.18;99065.94;344738;28;1262;-72
2022/11/20 00:03:02;;;;;;;9.18;5.88;;;;;;;6.07;80.14;99059.06;344561;28;1245;-72
2022/11/20 00:03:14;;;;;;;8.60;5.68;;;;;;;6.06;80.00;99062.53;344269;28;1345;-72
2022/11/20 00:03:27;;;;;;;8.35;5.60;;;;;;;6.05;79.94;99068.56;343656;28;1386;-72
2022/11/20 00:03:39;;;;;;;8.23;5.50;;;;;;;6.06;79.86;99062.53;342511;28;1190;-73
2022/11/20 00:03:52;;;;;;;8.95;5.78;;;;;;;6.07;80.34;99066.81;342005;28;1157;-72
2022/11/20 00:04:04;;;;;;;9.13;5.93;;;;;;;6.08;80.09;99060.78;342237;28;1071;-72
2022/11/20 00:04:16;;;;;;;8.57;5.82;;;;;;;6.08;80.27;99065.94;342311;28;1090;-72
2022/11/20 00:04:28;;;;;;;8.32;6.00;;;;;;;6.10;80.55;99064.16;341288;28;1145;-72
2022/11/20 00:04:40;;;;;;;9.85;6.15;;;;;;;6.11;80.54;99060.69;340556;29;1167;-73
2022/11/20 00:04:52;;;;;;;9.63;5.85;;;;;;;6.13;80.01;99064.06;340762;28;1751;-72
2022/11/20 00:05:05;;;;;;;9.82;6.05;;;;;;;6.11;80.48;99060.69;341499;28;1964;-73
2022/11/20 00:05:18;;;;;;;9.57;6.43;;;;;;;6.10;80.77;99062.44;341940;28;1341;-72
2022/11/20 00:05:32;;;;;;;9.23;6.22;;;;;;;6.06;80.79;99065.13;342742;28;1895;-72
2022/11/20 00:05:44;;;;;;;8.80;5.80;;;;;;;6.06;80.96;99063.38;343140;28;1090;-70
2022/11/20 00:06:05;;;;;;;9.13;5.80;;;;;;;6.10;80.88;99059.00;343930;28;813;-71
2022/11/20 00:06:18;;;;;;;9.07;6.25;;;;;;;6.12;80.43;99062.41;343353;28;1289;-71
2022/11/20 00:06:30;;;;;;;8.57;5.97;;;;;;;6.13;80.65;99066.66;344962;28;1312;-72
2022/11/20 00:06:42;;;;;;;8.25;5.80;;;;;;;6.13;80.77;99064.06;344687;28;1203;-71
2022/11/20 00:06:54;;;;;;;8.07;5.72;;;;;;;6.16;80.42;99069.19;345166;28;1169;-71
2022/11/20 00:07:06;;;;;;;8.27;5.93;;;;;;;6.15;79.84;99057.16;345204;28;1082;-71
2022/11/20 00:07:18;;;;;;;7.93;5.93;;;;;;;6.16;80.13;99069.19;345026;28;1390;-72
2022/11/20 00:07:30;;;;;;;7.95;5.68;;;;;;;6.17;79.94;99065.69;343969;28;1878;-74
2022/11/20 00:07:42;;;;;;;8.40;5.68;;;;;;;6.17;79.71;99063.97;345079;28;733;-74
2022/11/20 00:07:54;;;;;;;8.57;5.88;;;;;;;6.20;79.98;99063.06;344884;28;1148;-74
2022/11/20 00:08:06;;;;;;;8.63;6.05;;;;;;;6.10;79.24;99064.16;344726;28;1292;-74
2022/11/20 00:08:18;;;;;;;8.82;6.05;;;;;;;6.11;79.02;99071.84;344876;28;1238;-72
2022/11/20 00:08:31;;;;;;;9.32;6.30;;;;;;;6.11;78.79;99066.69;344788;28;1079;-71
2022/11/20 00:08:44;;;;;;;9.05;6.22;;;;;;;6.08;78.55;99065.94;343322;28;1093;-71
2022/11/20 00:08:59;;;;;;;8.30;5.97;;;;;;;6.07;78.99;99061.66;343404;28;1096;-72
2022/11/20 00:09:11;;;;;;;9.35;6.05;;;;;;;6.03;79.37;99067.75;343236;28;1015;-72
2022/11/20 00:09:23;;;;;;;9.82;6.22;;;;;;;6.05;79.14;99068.56;343343;28;1279;-71
2022/11/20 00:09:35;;;;;;;9.07;6.20;;;;;;;6.02;79.74;99066.06;343514;28;2134;-71
2022/11/20 00:09:47;;;;;;;8.80;6.20;;;;;;;5.99;79.72;99065.25;343271;28;1245;-71
2022/11/20 00:09:59;;;;;;;9.35;6.28;;;;;;;5.98;80.69;99065.31;344355;28;1042;-71
2022/11/20 00:10:11;;;;;;;9.00;6.03;;;;;;;6.03;80.73;99068.59;344812;28;1187;-71
2022/11/20 00:10:24;;;;;;;8.30;6.00;;;;;;;6.02;80.50;99066.94;343294;28;1706;-71
2022/11/20 00:10:36;;;;;;;8.88;6.28;;;;;;;6.03;80.75;99072.94;343316;28;1094;-71
2022/11/20 00:10:48;;;;;;;9.82;6.45;;;;;;;6.00;80.61;99069.53;343728;28;1244;-71
2022/11/20 00:11:05;;;;;;;10.50;6.20;;;;;;;6.00;80.28;99068.69;343783;28;1018;-69
2022/11/20 00:11:23;;;;;;;10.10;6.30;;;;;;;5.99;80.64;99067.81;343388;28;1051;-71
2022/11/20 00:11:35;;;;;;;9.10;6.20;;;;;;;6.00;80.59;99066.94;343427;28;1240;-71
2022/11/20 00:11:47;;;;;;;8.10;5.75;;;;;;;5.99;80.26;99069.56;343610;28;1216;-70
2022/11/20 00:11:59;;;;;;;8.52;5.97;;;;;;;5.99;79.82;99070.41;343921;28;916;-72
2022/11/20 00:12:11;;;;;;;9.43;6.13;;;;;;;5.94;80.26;99067.06;343762;28;1089;-72
2022/11/20 00:12:23;;;;;;;9.57;6.03;;;;;;;5.98;79.96;99070.47;343699;28;1152;-73
2022/11/20 00:12:34;;;;;;;8.68;5.70;;;;;;;5.99;80.02;99061.81;343539;28;1219;-73
2022/11/20 00:12:46;;;;;;;8.98;5.78;;;;;;;5.96;79.81;99067.91;343439;28;1072;-73
2022/11/20 00:12:58;;;;;;;9.48;5.95;;;;;;;5.85;80.16;99064.69;343427;28;1198;-73
2022/11/20 00:13:10;;;;;;;9.85;6.18;;;;;;;5.80;80.40;99066.53;342411;28;1286;-73
2022/11/20 00:13:22;;;;;;;9.23;6.00;;;;;;;5.83;79.80;99071.59;342090;28;1107;-71
2022/11/20 00:13:34;;;;;;;9.30;6.10;;;;;;;5.87;80.62;99064.66;342259;28;1106;-71
2022/11/20 00:13:49;;;;;;;9.15;6.22;;;;;;;5.90;80.71;99067.19;342103;28;1176;-71
2022/11/20 00:14:02;;;;;;;9.35;6.32;;;;;;;5.93;81.02;99067.09;342187;28;1114;-70
2022/11/20 00:14:14;;;;;;;9.75;6.53;;;;;;;5.92;80.26;99063.66;342226;28;1075;-72
2022/11/20 00:14:26;;;;;;;10.27;6.68;;;;;;;5.90;80.98;99065.44;342188;28;1337;-72
2022/11/20 00:14:37;;;;;;;10.27;6.53;;;;;;;5.93;80.52;99065.34;341166;28;1194;-73
2022/11/20 00:14:49;;;;;;;9.80;6.45;;;;;;;5.95;80.49;99060.19;341811;28;1183;-73
2022/11/20 00:15:02;;;;;;;9.52;6.53;;;;;;;5.97;81.02;99069.59;340646;29;1252;-73
2022/11/20 00:15:14;;;;;;;9.63;6.53;;;;;;;5.95;80.84;99066.19;341601;28;1137;-73
2022/11/20 00:15:26;;;;;;;9.50;6.63;;;;;;;5.98;80.57;99066.13;342155;28;1052;-71
2022/11/20 00:15:38;;;;;;;9.50;6.60;;;;;;;6.00;80.88;99064.38;342423;28;1247;-71
2022/11/20 00:15:58;;;;;;;9.27;6.13;;;;;;;6.04;81.07;99059.13;342235;28;1099;-71
2022/11/20 00:16:11;;;;;;;9.77;6.10;;;;;;;6.07;80.64;99064.22;342234;28;1064;-70
2022/11/20 00:16:26;;;;;;;10.05;6.55;;;;;;;6.11;80.71;99065.84;340807;29;1289;-73
2022/11/20 00:16:38;;;;;;;10.15;6.63;;;;;;;6.13;80.60;99069.25;341523;28;1095;-73
2022/11/20 00:16:50;;;;;;;9.85;6.22;;;;;;;6.14;80.45;99058.03;342539;28;991;-73
2022/11/20 00:17:02;;;;;;;8.98;5.90;;;;;;;6.17;80.41;99060.53;343787;28;1177;-73
2022/11/20 00:17:14;;;;;;;9.38;5.93;;;;;;;6.18;79.81;99062.25;344840;28;1178;-73
2022/11/20 00:17:26;;;;;;;9.40;6.07;;;;;;;6.20;79.82;99060.47;344557;28;1066;-70
2022/11/20 00:17:38;;;;;;;9.27;6.05;;;;;;;6.23;80.61;99065.56;343744;28;1108;-70
2022/11/20 00:17:50;;;;;;;9.73;6.43;;;;;;;6.20;80.41;99068.22;343564;28;1115;-70
2022/11/20 00:18:02;;;;;;;9.02;5.97;;;;;;;6.19;80.07;99063.94;342227;28;1209;-70
2022/11/20 00:18:14;;;;;;;9.05;6.03;;;;;;;6.21;80.05;99062.16;342364;28;1068;-71
2022/11/20 00:18:27;;;;;;;9.80;5.95;;;;;;;6.23;80.47;99054.38;342346;28;930;-70
2022/11/20 00:18:39;;;;;;;10.68;6.20;;;;;;;6.10;80.09;99056.44;342108;28;1012;-73
2022/11/20 00:18:52;;;;;;;10.50;6.45;;;;;;;6.09;80.23;99065.03;342360;28;986;-73
2022/11/20 00:19:03;;;;;;;9.95;6.60;;;;;;;6.08;80.32;99071.09;342095;28;1076;-73
2022/11/20 00:19:16;;;;;;;9.23;6.50;;;;;;;6.03;80.26;99058.28;341220;29;761;-73
2022/11/20 00:19:27;;;;;;;9.50;6.57;;;;;;;6.08;79.88;99063.34;340878;29;1056;-73
2022/11/20 00:19:40;;;;;;;10.27;6.60;;;;;;;6.06;80.09;99063.38;341244;28;1012;-71
2022/11/20 00:19:52;;;;;;;9.95;6.50;;;;;;;6.03;80.21;99063.44;342157;28;1035;-70
2022/11/20 00:20:04;;;;;;;9.75;6.18;;;;;;;6.03;79.91;99058.28;342987;28;843;-70
2022/11/20 00:20:16;;;;;;;9.82;6.40;;;;;;;6.04;79.63;99053.97;344216;28;1960;-70
2022/11/20 00:20:28;;;;;;;10.30;6.53;;;;;;;6.02;80.25;99059.19;345119;28;1735;-70
2022/11/20 00:20:40;;;;;;;10.45;6.53;;;;;;;6.04;80.15;99059.13;344673;28;1277;-70
2022/11/20 00:20:52;;;;;;;10.25;6.32;;;;;;;6.06;80.56;99059.97;344229;28;1823;-73
2022/11/20 00:21:07;;;;;;;10.43;6.40;;;;;;;6.06;79.85;99057.38;343500;28;1059;-73
2022/11/20 00:21:24;;;;;;;9.93;6.38;;;;;;;6.11;80.47;99060.69;344140;28;1246;-73
2022/11/20 00:21:36;;;;;;;10.13;6.60;;;;;;;6.12;80.28;99058.06;343794;28;1031;-74
2022/11/20 00:21:51;;;;;;;10.20;6.70;;;;;;;6.14;80.61;99060.63;343502;28;1100;-73
2022/11/20 00:22:03;;;;;;;10.10;6.65;;;;;;;6.15;80.56;99057.16;343003;28;1836;-71
2022/11/20 00:22:15;;;;;;;9.77;6.73;;;;;;;6.16;80.87;99058.84;343932;28;775;-71
2022/11/20 00:22:27;;;;;;;9.77;6.50;;;;;;;6.18;80.44;99057.09;343604;28;1078;-71
2022/11/20 00:22:39;;;;;;;9.45;6.28;;;;;;;6.16;80.68;99058.84;343488;28;1019;-71
2022/11/20 00:22:51;;;;;;;10.07;6.15;;;;;;;6.19;80.28;99064.78;343677;28;1199;-70
2022/11/20 00:23:03;;;;;;;11.23;6.25;;;;;;;6.13;80.01;99054.59;343232;28;1120;-73
2022/11/20 00:23:15;;;;;;;10.90;6.07;;;;;;;6.09;80.44;99054.72;343432;28;1076;-73
2022/11/20 00:23:27;;;;;;;9.43;6.13;;;;;;;6.07;80.46;99065.06;343433;28;1385;-73
2022/11/20 00:23:39;;;;;;;10.23;6.40;;;;;;;6.09;80.47;99054.72;343287;28;1188;-73
2022/11/20 00:23:53;;;;;;;11.23;6.80;;;;;;;6.09;80.39;99055.56;343713;28;1209;-73
2022/11/20 00:24:08;;;;;;;11.43;6.83;;;;;;;5.99;79.97;99054.91;343673;28;1062;-73
2022/11/20 00:24:20;;;;;;;9.55;6.28;;;;;;;5.94;80.25;99058.50;344196;28;1280;-71
2022/11/20 00:24:32;;;;;;;9.07;6.35;;;;;;;5.88;80.62;99058.63;343519;28;1288;-70
2022/11/20 00:24:44;;;;;;;9.77;6.65;;;;;;;5.84;80.84;99057.84;343054;28;1121;-71
2022/11/20 00:24:57;;;;;;;9.60;6.72;;;;;;;5.79;80.66;99055.38;343546;28;1275;-71
2022/11/20 00:25:09;;;;;;;9.60;6.72;;;;;;;5.78;80.28;99055.41;343277;28;908;-71
2022/11/20 00:25:21;;;;;;;9.40;6.72;;;;;;;5.70;80.86;99059.88;343408;28;1110;-73
2022/11/20 00:25:34;;;;;;;8.65;6.35;;;;;;;5.72;80.49;99058.13;343299;28;1107;-73
2022/11/20 00:25:46;;;;;;;8.70;6.25;;;;;;;5.71;80.36;99052.09;343733;28;2920;-73
2022/11/20 00:26:03;;;;;;;9.85;6.57;;;;;;;5.63;81.25;99055.75;343500;28;1071;-73
2022/11/20 00:26:18;;;;;;;10.40;6.60;;;;;;;5.49;80.84;99061.19;343858;28;3067;-71
2022/11/20 00:26:31;;;;;;;10.02;6.45;;;;;;;5.53;80.59;99058.53;344692;28;1129;-70
2022/11/20 00:26:43;;;;;;;10.07;6.38;;;;;;;5.46;80.61;99056.97;344776;28;1597;-70
2022/11/20 00:26:55;;;;;;;10.77;6.65;;;;;;;5.43;80.96;99053.59;344540;28;1987;-70
2022/11/20 00:27:07;;;;;;;10.40;6.50;;;;;;;5.45;81.21;99052.66;344612;28;1103;-70
2022/11/20 00:27:19;;;;;;;10.18;6.45;;;;;;;5.45;81.67;99057.81;344561;28;1289;-70
2022/11/20 00:27:31;;;;;;;9.57;6.25;;;;;;;5.47;81.93;99057.78;343415;28;1502;-73
2022/11/20 00:27:43;;;;;;;9.52;6.20;;;;;;;5.46;81.18;99054.38;343480;28;1140;-73
2022/11/20 00:27:55;;;;;;;9.27;6.25;;;;;;;5.48;81.37;99057.78;341611;28;3109;-73
2022/11/20 00:28:07;;;;;;;9.13;6.22;;;;;;;5.49;80.34;99056.88;344741;28;2931;-73
2022/11/20 00:28:19;;;;;;;10.52;6.47;;;;;;;5.45;80.33;99055.25;344589;28;1301;-73
2022/11/20 00:28:31;;;;;;;10.55;6.30;;;;;;;5.41;80.19;99058.78;344038;28;2699;-73
2022/11/20 00:28:48;;;;;;;10.93;6.28;;;;;;;5.36;79.99;99056.28;345119;28;1207;-73
2022/11/20 00:29:01;;;;;;;10.82;6.68;;;;;;;5.37;80.07;99052.84;344807;28;1031;-70
2022/11/20 00:29:13;;;;;;;10.50;6.53;;;;;;;5.36;79.44;99055.47;344782;28;914;-70
2022/11/20 00:29:25;;;;;;;10.07;6.43;;;;;;;5.38;79.91;99062.28;345310;28;752;-70
2022/11/20 00:29:37;;;;;;;9.55;6.30;;;;;;;5.37;79.64;99058.00;345063;28;1238;-71
2022/11/20 00:29:49;;;;;;;9.63;6.45;;;;;;;5.36;79.72;99055.47;343536;28;1034;-73
2022/11/20 00:30:01;;;;;;;9.50;6.22;;;;;;;5.29;79.34;99059.03;343828;28;1115;-73
2022/11/20 00:30:13;;;;;;;9.98;6.38;;;;;;;5.28;79.87;99062.50;343552;28;1049;-71
2022/11/20 00:30:26;;;;;;;10.38;6.75;;;;;;;5.24;80.28;99060.88;343662;28;1046;-71
2022/11/20 00:30:41;;;;;;;10.38;6.90;;;;;;;5.27;80.13;99058.22;343318;28;1186;-71
2022/11/20 00:31:03;;;;;;;9.73;6.40;;;;;;;5.19;81.45;99059.25;343300;28;1127;-71
2022/11/20 00:31:17;;;;;;;9.82;6.35;;;;;;;5.22;81.33;99058.31;343451;28;1217;-70
2022/11/20 00:31:52;;;;;;;9.40;6.30;;;;;;;5.28;82.37;99052.19;344024;28;1218;-70
2022/11/20 00:32:04;;;;;;;9.98;6.22;;;;;;;5.31;82.03;99052.13;343120;28;1188;-72
2022/11/20 00:32:16;;;;;;;9.85;6.22;;;;;;;5.33;82.54;99051.22;343034;28;1237;-72
2022/11/20 00:32:32;;;;;;;9.68;6.28;;;;;;;5.36;82.03;99058.03;344745;28;1215;-72
2022/11/20 00:32:44;;;;;;;9.00;6.05;;;;;;;5.32;82.06;99054.66;344444;28;1867;-73
2022/11/20 00:32:57;;;;;;;9.05;5.97;;;;;;;5.31;81.32;99057.28;344477;28;952;-73
2022/11/20 00:33:13;;;;;;;9.63;6.10;;;;;;;5.30;81.67;99055.59;344974;28;1083;-73
2022/11/20 00:33:25;;;;;;;9.30;6.13;;;;;;;5.31;81.10;99057.28;344391;28;1465;-71
2022/11/20 00:33:38;;;;;;;9.43;6.03;;;;;;;5.26;80.92;99051.38;340809;28;2691;-70
2022/11/20 00:33:51;;;;;;;9.55;6.18;;;;;;;5.24;80.92;99055.72;342838;28;3004;-70
2022/11/20 00:34:03;;;;;;;9.35;5.90;;;;;;;5.18;80.30;99052.38;343642;28;1126;-71
2022/11/20 00:34:15;;;;;;;9.43;5.78;;;;;;;5.22;80.31;99060.06;343022;28;3261;-72
2022/11/20 00:34:28;;;;;;;10.20;5.90;;;;;;;5.23;80.63;99060.00;343554;28;1174;-73
2022/11/20 00:34:40;;;;;;;10.95;6.28;;;;;;;5.25;80.00;99057.41;342422;28;1853;-74
2022/11/20 00:34:52;;;;;;;10.10;6.07;;;;;;;5.25;80.44;99053.13;343187;28;1042;-73
2022/11/20 00:35:05;;;;;;;9.40;6.05;;;;;;;5.28;80.09;99054.78;343551;28;1106;-73
2022/11/20 00:35:17;;;;;;;9.10;6.03;;;;;;;5.28;80.41;99058.19;343263;28;1325;-73
2022/11/20 00:35:29;;;;;;;9.13;6.03;;;;;;;5.30;79.92;99051.28;343654;28;1272;-73
2022/11/20 00:35:41;;;;;;;9.07;5.70;;;;;;;5.31;79.81;99049.53;343927;28;1086;-71
2022/11/20 00:35:53;;;;;;;8.85;5.65;;;;;;;5.29;80.60;99053.88;343593;28;1074;-71
2022/11/20 00:36:13;;;;;;;9.18;5.72;;;;;;;5.28;80.86;99059.94;344766;28;1118;-71
2022/11/20 00:36:28;;;;;;;9.35;5.95;;;;;;;5.33;80.98;99055.50;345955;28;1619;-74
2022/11/20 00:36:40;;;;;;;8.60;5.80;;;;;;;5.30;80.40;99055.59;346302;28;1030;-73
2022/11/20 00:36:52;;;;;;;8.57;6.00;;;;;;;5.30;81.26;99058.16;346292;28;1207;-73
2022/11/20 00:37:04;;;;;;;8.75;6.10;;;;;;;5.27;81.89;99053.94;346104;28;1201;-73
2022/11/20 00:37:17;;;;;;;8.65;5.95;;;;;;;5.29;81.57;99059.03;346389;28;1348;-73
2022/11/20 00:37:29;;;;;;;8.70;5.90;;;;;;;5.31;82.03;99054.69;345812;28;967;-73
2022/11/20 00:37:41;;;;;;;9.18;5.97;;;;;;;5.32;81.35;99059.81;344876;28;1203;-70
2022/11/20 00:37:53;;;;;;;8.73;5.78;;;;;;;5.35;81.96;99056.31;344812;28;1181;-71
2022/11/20 00:38:05;;;;;;;9.00;5.90;;;;;;;5.34;81.37;99057.22;344809;28;1084;-71
2022/11/20 00:38:17;;;;;;;9.05;5.88;;;;;;;5.35;81.00;99054.63;344587;28;1209;-70
2022/11/20 00:38:31;;;;;;;9.30;6.10;;;;;;;5.34;81.25;99057.22;344791;28;1232;-70
2022/11/20 00:38:44;;;;;;;9.00;6.05;;;;;;;5.33;81.01;99058.09;344694;28;1492;-72
2022/11/20 00:38:58;;;;;;;9.20;6.07;;;;;;;5.26;80.39;99059.94;344411;28;1229;-73
2022/11/20 00:39:13;;;;;;;9.32;6.22;;;;;;;5.22;80.13;99053.16;343648;28;953;-73
2022/11/20 00:39:25;;;;;;;9.65;6.57;;;;;;;5.22;80.06;99058.31;343817;28;1048;-73
2022/11/20 00:39:37;;;;;;;9.75;6.47;;;;;;;5.18;80.24;99057.53;343434;28;1260;-73
2022/11/20 00:39:51;;;;;;;10.38;6.45;;;;;;;5.17;80.04;99054.97;344812;28;1027;-73
2022/11/20 00:40:03;;;;;;;10.43;6.20;;;;;;;5.15;80.09;99061.88;345000;28;1176;-70
2022/11/20 00:40:16;;;;;;;9.82;6.18;;;;;;;5.15;80.44;99056.72;344694;28;1178;-70
2022/11/20 00:40:28;;;;;;;8.83;6.20;;;;;;;5.07;80.46;99054.34;344894;28;1103;-70
2022/11/20 00:40:40;;;;;;;8.85;6.22;;;;;;;5.01;79.62;99057.03;344971;28;1015;-71
2022/11/20 00:41:00;;;;;;;8.68;5.97;;;;;;;4.98;80.65;99059.66;344618;28;1036;-71
2022/11/20 00:41:15;;;;;;;9.93;6.10;;;;;;;4.96;79.95;99061.41;345010;28;1073;-72
2022/11/20 00:41:28;;;;;;;10.25;6.20;;;;;;;4.96;80.47;99059.66;343737;28;1775;-73
2022/11/20 00:41:41;;;;;;;10.35;6.28;;;;;;;4.97;79.77;99065.66;343917;28;1051;-74
2022/11/20 00:41:53;;;;;;;10.43;6.13;;;;;;;4.97;79.80;99057.94;344759;28;1331;-73
2022/11/20 00:42:05;;;;;;;9.32;6.00;;;;;;;4.96;80.04;99057.09;344805;28;1190;-73
2022/11/20 00:42:20;;;;;;;9.20;5.95;;;;;;;5.01;80.03;99062.19;343618;28;1051;-73
2022/11/20 00:42:32;;;;;;;9.05;5.75;;;;;;;5.04;79.90;99056.97;343869;28;1345;-73
2022/11/20 00:42:44;;;;;;;8.52;5.57;;;;;;;5.06;79.66;99056.94;343410;28;1096;-73
2022/11/20 00:42:57;;;;;;;8.60;5.78;;;;;;;5.04;80.35;99059.53;343839;28;935;-73
2022/11/20 00:43:12;;;;;;;9.23;5.97;;;;;;;5.08;80.11;99066.31;343243;28;1051;-73
2022/11/20 00:43:25;;;;;;;9.43;6.18;;;;;;;5.13;80.03;99064.50;343389;28;1424;-73
2022/11/20 00:43:38;;;;;;;9.65;6.25;;;;;;;5.16;80.37;99064.44;344622;28;1066;-73
2022/11/20 00:43:53;;;;;;;9.27;5.75;;;;;;;5.20;80.47;99058.34;344413;28;1263;-73
2022/11/20 00:44:06;;;;;;;9.05;5.68;;;;;;;5.20;80.74;99058.34;343523;28;1099;-73
2022/11/20 00:44:18;;;;;;;8.73;5.82;;;;;;;5.20;80.25;99054.91;343888;28;1241;-73
2022/11/20 00:44:30;;;;;;;9.50;6.05;;;;;;;5.17;80.90;99058.41;344698;28;1038;-73
2022/11/20 00:44:44;;;;;;;10.05;5.95;;;;;;;5.20;80.91;99057.50;345143;28;772;-73
2022/11/20 00:44:56;;;;;;;9.95;6.00;;;;;;;5.22;81.10;99057.47;344741;28;1035;-73
2022/11/20 00:45:08;;;;;;;10.00;6.13;;;;;;;5.19;80.35;99064.38;344654;28;1258;-73
2022/11/20 00:45:21;;;;;;;10.57;6.30;;;;;;;5.25;80.91;99063.41;343483;28;1043;-73
2022/11/20 00:45:33;;;;;;;10.55;6.40;;;;;;;5.24;79.99;99060.88;343141;28;1201;-73
2022/11/20 00:45:45;;;;;;;10.05;6.40;;;;;;;5.22;80.28;99063.47;343547;28;920;-73
2022/11/20 00:46:02;;;;;;;10.40;6.70;;;;;;;5.18;80.57;99064.41;343628;28;1036;-73
2022/11/20 00:46:17;;;;;;;10.30;6.65;;;;;;;5.14;80.53;99058.47;343564;28;1184;-71
2022/11/20 00:46:29;;;;;;;9.90;6.00;;;;;;;5.14;79.94;99055.88;343737;28;1102;-71
2022/11/20 00:46:41;;;;;;;10.18;5.95;;;;;;;5.12;79.35;99057.66;343522;28;1075;-70
2022/11/20 00:46:53;;;;;;;10.45;6.20;;;;;;;5.04;79.46;99059.53;344671;28;1320;-70
2022/11/20 00:47:05;;;;;;;10.00;6.05;;;;;;;5.02;79.74;99057.88;345088;28;1086;-70
2022/11/20 00:47:18;;;;;;;9.90;6.07;;;;;;;4.99;80.41;99066.50;344891;28;1231;-71
2022/11/20 00:47:30;;;;;;;9.30;5.95;;;;;;;4.93;79.95;99062.31;345049;28;1184;-71
2022/11/20 00:47:42;;;;;;;8.85;5.93;;;;;;;4.89;80.24;99057.25;345231;28;744;-71
2022/11/20 00:47:55;;;;;;;9.07;5.97;;;;;;;4.91;79.99;99063.22;343762;28;1555;-71
2022/11/20 00:48:07;;;;;;;9.30;6.25;;;;;;;4.83;80.39;99071.09;344794;28;1019;-73
2022/11/20 00:48:19;;;;;;;9.30;6.20;;;;;;;4.86;80.92;99062.47;342148;28;3638;-73
2022/11/20 00:48:35;;;;;;;10.73;6.28;;;;;;;4.68;81.07;99061.91;344101;28;3256;-74
2022/11/20 00:48:47;;;;;;;11.38;6.32;;;;;;;4.62;81.20;99066.34;344942;28;1147;-73
2022/11/20 00:49:00;;;;;;;9.65;6.10;;;;;;;4.68;81.20;99064.50;343094;28;2593;-73
2022/11/20 00:49:12;;;;;;;9.57;5.97;;;;;;;4.78;81.49;99063.44;343109;28;1054;-73
2022/11/20 00:49:25;;;;;;;9.43;6.20;;;;;;;4.82;81.72;99063.41;342887;28;1593;-73
2022/11/20 00:49:37;;;;;;;9.70;6.35;;;;;;;4.77;82.10;99066.91;343357;28;1100;-71
2022/11/20 00:49:49;;;;;;;9.93;6.38;;;;;;;4.74;81.10;99061.81;343366;28;1019;-70
2022/11/20 00:50:02;;;;;;;10.85;6.47;;;;;;;4.75;81.43;99063.50;341656;28;1397;-73
2022/11/20 00:50:14;;;;;;;10.52;6.20;;;;;;;4.78;82.08;99060.88;340627;29;1060;-71
2022/11/20 00:50:28;;;;;;;10.68;6.30;;;;;;;4.82;81.25;99058.25;341799;28;1100;-72
2022/11/20 00:50:41;;;;;;;10.95;6.38;;;;;;;4.88;81.24;99065.84;340924;29;1008;-72
2022/11/20 00:50:54;;;;;;;10.50;6.32;;;;;;;4.91;81.46;99063.22;340522;29;965;-73
2022/11/20 00:51:09;;;;;;;9.63;6.30;;;;;;;4.97;82.52;99061.38;340830;29;1261;-73
2022/11/20 00:51:24;;;;;;;9.98;6.50;;;;;;;5.03;81.98;99062.13;342949;28;1270;-73
2022/11/20 00:51:36;;;;;;;9.93;6.60;;;;;;;5.05;82.79;99061.25;343410;28;1155;-70
2022/11/20 00:51:49;;;;;;;10.15;6.55;;;;;;;5.09;82.42;99065.44;343002;28;1290;-70
2022/11/20 00:52:01;;;;;;;11.32;6.80;;;;;;;5.12;82.63;99061.97;343598;28;1509;-71
2022/11/20 00:52:13;;;;;;;10.88;6.63;;;;;;;5.13;82.48;99069.66;345088;28;1170;-71
2022/11/20 00:52:25;;;;;;;9.43;6.32;;;;;;;5.11;82.69;99058.53;343510;28;1399;-71
2022/11/20 00:52:37;;;;;;;9.32;6.40;;;;;;;5.11;82.21;99061.13;342445;28;733;-71
2022/11/20 00:52:49;;;;;;;9.50;6.40;;;;;;;5.12;81.74;99064.53;343367;28;1145;-72
2022/11/20 00:53:01;;;;;;;9.90;6.50;;;;;;;5.11;81.80;99063.69;343368;28;1127;-72
2022/11/20 00:53:14;;;;;;;9.60;6.50;;;;;;;5.12;82.10;99065.38;343283;28;1078;-72
2022/11/20 00:53:27;;;;;;;9.80;6.65;;;;;;;5.11;82.37;99061.13;343179;28;1376;-72
2022/11/20 00:53:39;;;;;;;9.48;6.20;;;;;;;5.09;82.72;99057.72;343470;28;1059;-72
2022/11/20 00:53:57;;;;;;;9.70;6.28;;;;;;;5.12;83.35;99065.38;342173;28;1181;-72
2022/11/20 00:54:09;;;;;;;10.18;6.20;;;;;;;5.15;83.17;99060.19;341856;28;1075;-72
2022/11/20 00:54:21;;;;;;;10.98;6.35;;;;;;;5.18;82.47;99062.69;342160;28;1063;-72
2022/11/20 00:54:33;;;;;;;10.75;6.43;;;;;;;5.19;83.00;99064.38;342009;28;1095;-71
2022/11/20 00:54:45;;;;;;;10.32;6.60;;;;;;;5.23;81.85;99064.31;343598;28;753;-70
2022/11/20 00:54:57;;;;;;;9.93;6.30;;;;;;;5.23;81.67;99067.72;343145;28;1249;-71
2022/11/20 00:55:12;;;;;;;10.90;6.70;;;;;;;5.19;81.11;99064.38;343354;28;1066;-71
2022/11/20 00:55:24;;;;;;;10.75;6.80;;;;;;;5.19;81.92;99061.81;343435;28;851;-72
2022/11/20 00:55:36;;;;;;;10.48;6.65;;;;;;;5.18;81.39;99062.69;344363;28;1160;-73
2022/11/20 00:55:56;;;;;;;9.80;6.30;;;;;;;5.16;81.42;99064.44;344369;28;834;-70
2022/11/20 00:56:14;;;;;;;9.25;5.90;;;;;;;5.22;81.26;99060.91;344902;28;1179;-69
2022/11/20 00:56:26;;;;;;;9.70;6.00;;;;;;;5.22;81.35;99062.63;345272;28;1178;-69
2022/11/20 00:56:41;;;;;;;9.63;6.25;;;;;;;5.19;81.63;99059.25;344714;28;1079;-70
2022/11/20 00:56:54;;;;;;;9.60;6.30;;;;;;;5.09;80.68;99062.88;344901;28;1380;-70
2022/11/20 00:57:06;;;;;;;8.95;6.15;;;;;;;5.13;81.11;99066.22;344922;28;1078;-70
2022/11/20 00:57:18;;;;;;;8.93;6.22;;;;;;;5.08;81.24;99061.16;345151;28;748;-71
2022/11/20 00:57:31;;;;;;;9.10;6.00;;;;;;;5.10;80.89;99064.56;345105;28;1086;-72
2022/11/20 00:57:43;;;;;;;9.60;6.07;;;;;;;5.12;80.25;99062.81;344787;28;1160;-72
2022/11/20 00:57:55;;;;;;;10.10;6.30;;;;;;;5.14;80.33;99065.34;344772;28;1070;-72
2022/11/20 00:58:08;;;;;;;11.07;6.30;;;;;;;5.12;80.50;99067.94;344733;28;1063;-72
2022/11/20 00:58:32;;;;;;;10.77;6.38;;;;;;;5.12;81.16;99062.81;344468;28;1051;-72
2022/11/20 00:58:46;;;;;;;9.60;6.07;;;;;;;5.07;80.37;99063.75;343183;28;1035;-72
2022/11/20 00:59:00;;;;;;;9.85;6.10;;;;;;;4.94;80.17;99068.31;342997;28;1055;-71
2022/11/20 00:59:12;;;;;;;10.13;6.07;;;;;;;4.85;80.65;99060.75;343249;28;1055;-71
2022/11/20 00:59:25;;;;;;;9.35;6.10;;;;;;;4.83;80.52;99058.22;343387;28;1259;-71
2022/11/20 00:59:37;;;;;;;10.38;6.55;;;;;;;4.83;80.77;99062.50;343281;28;1043;-71
2022/11/20 00:59:49;;;;;;;11.43;7.00;;;;;;;4.85;81.37;99059.03;343632;28;1170;-71
2022/11/20 01:00:02;;;;;;;11.75;6.82;;;;;;;4.75;82.01;99065.25;343160;28;1078;-71
2022/11/20 01:00:15;;;;;;;10.00;6.03;;;;;;;4.80;82.92;99066.84;344499;28;1176;-71
2022/11/20 01:00:27;;;;;;;9.02;5.95;;;;;;;4.89;82.47;99060.69;344660;28;1271;-72
2022/11/20 01:00:39;;;;;;;9.02;6.18;;;;;;;4.93;82.61;99058.88;344705;28;1043;-71
2022/11/20 01:00:51;;;;;;;9.70;6.43;;;;;;;4.99;82.24;99063.94;345681;28;1057;-71
2022/11/20 01:01:06;;;;;;;10.10;6.32;;;;;;;4.97;81.51;99063.09;345814;28;1240;-71
2022/11/20 01:01:23;;;;;;;9.73;5.97;;;;;;;4.98;81.33;99064.81;345926;28;1118;-71
2022/11/20 01:01:36;;;;;;;9.52;6.10;;;;;;;4.95;80.82;99064.84;345979;28;1061;-71
2022/11/20 01:01:49;;;;;;;9.13;6.00;;;;;;;4.97;80.65;99058.81;345860;28;1173;-72
2022/11/20 01:02:01;;;;;;;9.00;5.72;;;;;;;4.99;80.76;99061.38;346064;28;1034;-73
2022/11/20 01:02:16;;;;;;;9.20;5.72;;;;;;;4.99;80.93;99067.34;344841;28;1070;-73
2022/11/20 01:02:28;;;;;;;9.48;6.03;;;;;;;5.00;81.35;99058.72;344919;28;916;-73
2022/11/20 01:02:40;;;;;;;10.30;6.32;;;;;;;4.96;82.09;99061.41;344710;28;1123;-71
2022/11/20 01:02:52;;;;;;;10.50;6.60;;;;;;;5.00;82.17;99063.03;344384;28;1050;-71
2022/11/20 01:03:04;;;;;;;9.95;6.35;;;;;;;5.02;82.26;99060.44;343556;28;2120;-71
2022/11/20 01:03:17;;;;;;;9.82;6.30;;;;;;;5.05;82.32;99061.25;343793;28;1903;-71